createdAt,value
2018-06-16T00:00:48.843Z,82.27
2018-06-16T00:03:17.011Z,82.50
2018-06-16T00:05:45.181Z,81.49
2018-06-16T00:08:13.343Z,80.46
2018-06-16T00:10:41.502Z,80.88
2018-06-16T00:13:09.666Z,81.58
2018-06-16T00:15:37.834Z,82.58
2018-06-16T00:18:06.011Z,82.80
2018-06-16T00:20:34.181Z,83.26
2018-06-16T00:23:02.349Z,83.57
2018-06-16T00:25:30.526Z,83.20
2018-06-16T00:27:58.696Z,84.02
2018-06-16T00:30:26.865Z,85.07
2018-06-16T00:32:55.029Z,85.32
2018-06-16T00:35:23.190Z,85.31
2018-06-16T00:37:51.351Z,85.52
2018-06-16T00:40:19.524Z,86.08
2018-06-16T00:42:47.698Z,85.85
2018-06-16T00:45:15.967Z,87.05
2018-06-16T00:47:44.134Z,87.33
2018-06-16T00:50:12.293Z,87.32
2018-06-16T00:52:40.482Z,88.07
2018-06-16T00:55:09.014Z,87.35
2018-06-16T00:57:48.250Z,88.24
2018-06-16T01:00:17.550Z,87.65
2018-06-16T01:02:45.919Z,88.48
2018-06-16T01:05:14.106Z,88.65
2018-06-16T01:07:42.286Z,88.39
2018-06-16T01:10:11.371Z,88.94
2018-06-16T01:12:39.846Z,89.31
2018-06-16T01:15:08.045Z,89.62
2018-06-16T01:17:36.203Z,89.50
2018-06-16T01:20:05.001Z,89.87
2018-06-16T01:22:33.258Z,90.14
2018-06-16T01:25:01.430Z,90.91
2018-06-16T01:27:30.015Z,91.25
2018-06-16T01:29:58.507Z,91.64
2018-06-16T01:32:26.774Z,92.05
2018-06-16T01:34:54.972Z,91.51
2018-06-16T01:37:23.155Z,92.31
2018-06-16T01:39:51.403Z,92.43
2018-06-16T01:42:19.578Z,92.97
2018-06-16T01:44:47.769Z,93.04
2018-06-16T01:47:15.930Z,93.17
2018-06-16T01:49:44.106Z,93.45
2018-06-16T01:52:12.278Z,93.98
2018-06-16T01:54:40.460Z,94.22
2018-06-16T01:57:08.631Z,94.54
2018-06-16T01:59:36.797Z,94.83
2018-06-16T02:02:05.326Z,94.12
2018-06-16T02:04:33.510Z,94.45
2018-06-16T02:07:01.680Z,94.68
2018-06-16T02:09:29.854Z,94.73
2018-06-16T02:11:58.036Z,95.30
2018-06-16T02:14:26.204Z,95.44
2018-06-16T02:16:54.422Z,95.60
2018-06-16T02:19:22.599Z,95.79
2018-06-16T02:21:50.770Z,96.01
2018-06-16T02:24:18.951Z,95.92
2018-06-16T02:26:47.130Z,95.25
2018-06-16T02:29:15.314Z,95.99
2018-06-16T02:31:43.482Z,95.56
2018-06-16T02:34:11.646Z,95.71
2018-06-16T02:36:39.823Z,95.47
2018-06-16T02:39:09.754Z,95.72
2018-06-16T02:41:37.964Z,95.67
2018-06-16T02:44:06.150Z,96.16
2018-06-16T02:46:34.338Z,95.83
2018-06-16T02:49:02.520Z,96.05
2018-06-16T02:51:30.700Z,95.90
2018-06-16T02:53:58.862Z,95.94
2018-06-16T02:56:27.154Z,96.15
2018-06-16T02:58:55.330Z,96.54
2018-06-16T03:01:23.498Z,96.71
2018-06-16T03:03:51.711Z,96.30
2018-06-16T03:06:19.875Z,96.51
2018-06-16T03:08:48.053Z,97.04
2018-06-16T03:11:16.216Z,97.24
2018-06-16T03:13:44.377Z,96.83
2018-06-16T03:16:12.547Z,96.80
2018-06-16T03:18:40.702Z,96.69
2018-06-16T03:21:08.862Z,97.18
2018-06-16T03:23:37.147Z,96.99
2018-06-16T03:26:05.270Z,97.38
2018-06-16T03:28:33.470Z,97.23
2018-06-16T03:31:01.655Z,97.08
2018-06-16T03:33:29.810Z,96.93
2018-06-16T03:35:57.974Z,97.55
2018-06-16T03:38:26.151Z,96.98
2018-06-16T03:40:54.506Z,96.65
2018-06-16T03:43:22.685Z,96.40
2018-06-16T03:45:50.853Z,96.95
2018-06-16T03:48:19.022Z,96.80
2018-06-16T03:50:47.186Z,96.35
2018-06-16T03:53:15.346Z,96.05
2018-06-16T03:55:43.506Z,96.04
2018-06-16T03:58:11.674Z,95.69
2018-06-16T04:00:39.826Z,96.00
2018-06-16T04:03:08.031Z,95.72
2018-06-16T04:05:36.203Z,95.18
2018-06-16T04:08:04.430Z,95.16
2018-06-16T04:10:32.610Z,95.56
2018-06-16T04:13:00.762Z,95.29
2018-06-16T04:15:28.926Z,95.15
2018-06-16T04:17:57.099Z,94.70
2018-06-16T04:20:25.262Z,95.00
2018-06-16T04:22:53.626Z,94.64
2018-06-16T04:25:21.810Z,94.97
2018-06-16T04:27:49.977Z,94.42
2018-06-16T04:30:18.146Z,94.46
2018-06-16T04:32:46.319Z,93.81
2018-06-16T04:35:14.473Z,93.96
2018-06-16T04:37:42.646Z,93.78
2018-06-16T04:40:10.822Z,93.42
2018-06-16T04:42:39.034Z,94.07
2018-06-16T04:45:07.227Z,93.85
2018-06-16T04:47:35.620Z,93.54
2018-06-16T04:50:03.854Z,93.05
2018-06-16T04:52:32.086Z,92.49
2018-06-16T04:55:00.277Z,93.11
2018-06-16T04:57:28.446Z,92.46
2018-06-16T04:59:56.602Z,92.58
2018-06-16T05:02:24.805Z,92.48
2018-06-16T05:04:52.994Z,92.39
2018-06-16T05:07:21.179Z,91.25
2018-06-16T05:09:49.427Z,92.22
2018-06-16T05:12:17.606Z,92.51
2018-06-16T05:14:45.783Z,91.59
2018-06-16T05:17:13.943Z,91.35
2018-06-16T05:19:42.118Z,90.77
2018-06-16T05:22:10.273Z,90.47
2018-06-16T05:24:38.423Z,91.05
2018-06-16T05:27:06.602Z,90.76
2018-06-16T05:29:34.754Z,91.24
2018-06-16T05:32:02.914Z,89.70
2018-06-16T05:34:31.084Z,90.24
2018-06-16T05:36:59.263Z,90.73
2018-06-16T05:39:27.427Z,90.06
2018-06-16T05:41:55.578Z,89.35
2018-06-16T05:44:23.770Z,89.75
2018-06-16T05:46:51.969Z,88.83
2018-06-16T05:49:20.113Z,88.92
2018-06-16T05:51:48.270Z,89.72
2018-06-16T05:54:16.436Z,88.93
2018-06-16T05:56:44.606Z,89.42
2018-06-16T05:59:12.778Z,89.76
2018-06-16T06:01:40.939Z,89.70
2018-06-16T06:04:09.091Z,88.88
2018-06-16T06:06:37.254Z,87.30
2018-06-16T06:09:07.333Z,87.74
2018-06-16T06:11:35.490Z,87.85
2018-06-16T06:14:03.695Z,87.21
2018-06-16T06:16:32.266Z,86.96
2018-06-16T06:19:00.421Z,85.79
2018-06-16T06:21:28.587Z,86.24
2018-06-16T06:23:56.748Z,86.68
2018-06-16T06:26:24.902Z,84.16
2018-06-16T06:28:53.054Z,84.81
2018-06-16T06:31:21.215Z,83.98
2018-06-16T06:33:49.375Z,84.48
2018-06-16T06:36:17.630Z,84.44
2018-06-16T06:38:45.782Z,83.73
2018-06-16T06:41:13.950Z,82.92
2018-06-16T06:43:42.138Z,84.17
2018-06-16T06:46:10.326Z,84.48
2018-06-16T06:48:38.480Z,83.09
2018-06-16T06:51:06.656Z,83.72
2018-06-16T06:53:34.805Z,82.76
2018-06-16T06:56:03.062Z,80.82
2018-06-16T06:58:31.219Z,80.33
2018-06-16T07:00:59.374Z,80.82
2018-06-16T07:03:27.539Z,80.54
2018-06-16T07:05:55.835Z,79.96
2018-06-16T07:08:24.307Z,78.90
2018-06-16T07:10:52.516Z,79.13
2018-06-16T07:13:20.618Z,79.37
2018-06-16T07:15:48.770Z,78.32
2018-06-16T07:18:16.962Z,78.61
2018-06-16T07:20:45.110Z,74.19
2018-06-16T07:23:13.276Z,74.62
2018-06-16T07:25:41.459Z,75.33
2018-06-16T07:28:09.791Z,75.73
2018-06-16T07:30:37.958Z,73.26
2018-06-16T07:33:06.195Z,75.70
2018-06-16T07:35:34.367Z,72.22
2018-06-16T07:38:02.546Z,72.68
2018-06-16T07:40:30.706Z,72.83
2018-06-16T07:42:58.866Z,70.05
2018-06-16T07:45:27.027Z,71.81
2018-06-16T07:47:55.227Z,70.37
2018-06-16T07:50:23.390Z,70.38
2018-06-16T07:52:51.553Z,73.14
2018-06-16T07:55:19.714Z,68.28
2018-06-16T07:57:47.988Z,71.79
2018-06-16T08:00:16.262Z,70.60
2018-06-16T08:02:44.502Z,67.69
2018-06-16T08:05:12.615Z,69.19
2018-06-16T08:07:40.791Z,69.00
2018-06-16T08:10:09.095Z,67.14
2018-06-16T08:12:37.254Z,67.50
2018-06-16T08:15:05.425Z,66.24
2018-06-16T08:17:33.598Z,65.49
2018-06-16T08:20:01.775Z,67.27
2018-06-16T08:22:29.936Z,65.35
2018-06-16T08:24:58.094Z,64.67
2018-06-16T08:27:26.263Z,63.83
2018-06-16T08:29:54.422Z,61.13
2018-06-16T08:32:22.611Z,62.60
2018-06-16T08:34:50.827Z,62.79
2018-06-16T08:37:18.982Z,63.82
2018-06-16T08:39:47.156Z,61.71
2018-06-16T08:42:15.326Z,59.62
2018-06-16T08:44:43.551Z,64.32
2018-06-16T08:47:11.730Z,59.86
2018-06-16T08:49:39.981Z,59.19
2018-06-16T08:52:08.154Z,57.53
2018-06-16T08:54:36.317Z,58.92
2018-06-16T08:57:04.545Z,62.03
2018-06-16T08:59:32.841Z,58.94
2018-06-16T09:02:01.091Z,61.82
2018-06-16T09:04:29.263Z,59.93
2018-06-16T09:06:57.430Z,60.51
2018-06-16T09:09:25.615Z,60.83
2018-06-16T09:11:53.820Z,61.03
2018-06-16T09:14:21.983Z,58.04
2018-06-16T09:16:50.202Z,58.80
2018-06-16T09:19:18.362Z,59.61
2018-06-16T09:21:46.559Z,61.35
2018-06-16T09:24:14.714Z,60.29
2018-06-16T09:26:42.930Z,62.98
2018-06-16T09:29:11.094Z,57.37
2018-06-16T09:31:39.269Z,60.63
2018-06-16T09:34:07.514Z,61.76
2018-06-16T09:36:35.682Z,52.67
2018-06-16T09:39:06.151Z,53.45
2018-06-16T09:41:34.326Z,54.58
2018-06-16T09:44:02.494Z,56.04
2018-06-16T09:46:30.690Z,50.69
2018-06-16T09:48:58.842Z,52.45
2018-06-16T09:51:27.011Z,50.35
2018-06-16T09:53:55.185Z,50.82
2018-06-16T09:56:23.358Z,50.12
2018-06-16T09:58:51.515Z,50.21
2018-06-16T10:01:19.670Z,46.18
2018-06-16T10:03:47.836Z,49.98
2018-06-16T10:06:16.009Z,42.85
2018-06-16T10:08:44.173Z,51.24
2018-06-16T10:11:12.330Z,44.02
2018-06-16T10:13:40.490Z,43.08
2018-06-16T10:16:08.648Z,44.86
2018-06-16T10:18:36.812Z,44.53
2018-06-16T10:21:04.971Z,45.45
2018-06-16T10:23:33.146Z,47.98
2018-06-16T10:26:01.317Z,48.90
2018-06-16T10:28:29.475Z,48.30
2018-06-16T10:30:57.658Z,45.16
2018-06-16T10:33:25.922Z,43.25
2018-06-16T10:35:54.090Z,43.83
2018-06-16T10:38:22.263Z,44.96
2018-06-16T10:40:50.422Z,40.15
2018-06-16T10:43:18.599Z,41.84
2018-06-16T10:45:46.774Z,41.54
2018-06-16T10:48:15.026Z,42.72
2018-06-16T10:50:43.194Z,45.64
2018-06-16T10:53:13.508Z,46.51
2018-06-16T10:55:41.667Z,45.78
2018-06-16T10:58:09.926Z,43.55
2018-06-16T11:00:38.098Z,45.08
2018-06-16T11:03:06.255Z,49.91
2018-06-16T11:05:34.414Z,44.01
2018-06-16T11:08:02.599Z,42.66
2018-06-16T11:10:30.758Z,43.46
2018-06-16T11:12:58.984Z,42.06
2018-06-16T11:15:27.365Z,45.37
2018-06-16T11:17:55.539Z,45.23
2018-06-16T11:20:23.770Z,44.26
2018-06-16T11:22:51.934Z,41.81
2018-06-16T11:25:20.103Z,40.07
2018-06-16T11:27:48.302Z,44.10
2018-06-16T11:30:16.474Z,42.84
2018-06-16T11:32:44.656Z,42.90
2018-06-16T11:35:12.807Z,40.78
2018-06-16T11:37:40.986Z,40.64
2018-06-16T11:40:09.178Z,41.48
2018-06-16T11:42:37.434Z,40.51
2018-06-16T11:45:05.907Z,37.83
2018-06-16T11:47:34.097Z,38.06
2018-06-16T11:50:02.246Z,37.68
2018-06-16T11:52:30.402Z,38.73
2018-06-16T11:54:58.606Z,40.35
2018-06-16T11:57:26.839Z,43.02
2018-06-16T11:59:55.107Z,40.30
2018-06-16T12:02:23.289Z,45.03
2018-06-16T12:04:51.462Z,43.02
2018-06-16T12:07:19.650Z,39.11
2018-06-16T12:09:47.811Z,40.35
2018-06-16T12:12:15.971Z,39.72
2018-06-16T12:14:44.121Z,39.69
2018-06-16T12:17:12.305Z,38.22
2018-06-16T12:19:40.519Z,43.13
2018-06-16T12:22:08.686Z,43.09
2018-06-16T12:24:36.872Z,43.92
2018-06-16T12:27:05.183Z,43.61
2018-06-16T12:29:33.353Z,39.44
2018-06-16T12:32:01.585Z,37.10
2018-06-16T12:34:29.726Z,37.16
2018-06-16T12:36:57.891Z,38.83
2018-06-16T12:39:26.054Z,39.44
2018-06-16T12:41:54.227Z,40.15
2018-06-16T12:44:22.387Z,40.76
2018-06-16T12:46:50.543Z,39.84
2018-06-16T12:49:18.711Z,42.54
2018-06-16T12:51:46.878Z,42.12
2018-06-16T12:54:15.039Z,42.67
2018-06-16T12:56:43.293Z,41.41
2018-06-16T12:59:11.573Z,42.72
2018-06-16T13:01:39.883Z,45.21
2018-06-16T13:04:08.071Z,41.10
2018-06-16T13:06:36.235Z,45.63
2018-06-16T13:09:06.214Z,47.21
2018-06-16T13:11:34.399Z,49.66
2018-06-16T13:14:02.892Z,49.22
2018-06-16T13:16:31.206Z,50.17
2018-06-16T13:18:59.867Z,49.89
2018-06-16T13:21:28.148Z,43.73
2018-06-16T13:23:56.306Z,46.90
2018-06-16T13:26:24.686Z,48.28
2018-06-16T13:28:52.879Z,53.25
2018-06-16T13:31:21.118Z,56.45
2018-06-16T13:33:49.635Z,53.59
2018-06-16T13:36:17.826Z,56.33
2018-06-16T13:38:46.058Z,55.95
2018-06-16T13:41:14.270Z,56.61
2018-06-16T13:43:42.447Z,55.30
2018-06-16T13:46:10.640Z,57.37
2018-06-16T13:48:38.802Z,58.29
2018-06-16T13:51:07.006Z,59.50
2018-06-16T13:53:35.222Z,57.76
2018-06-16T13:56:03.394Z,58.23
2018-06-16T13:58:31.686Z,56.28
2018-06-16T14:00:59.862Z,55.57
2018-06-16T14:03:28.110Z,56.05
2018-06-16T14:05:56.527Z,54.02
2018-06-16T14:08:24.888Z,53.45
2018-06-16T14:10:53.369Z,54.20
2018-06-16T14:13:21.587Z,55.04
2018-06-16T14:15:49.792Z,54.44
2018-06-16T14:18:18.386Z,53.43
2018-06-16T14:20:46.572Z,54.42
2018-06-16T14:23:14.841Z,54.41
2018-06-16T14:25:43.062Z,54.53
2018-06-16T14:28:11.207Z,53.03
2018-06-16T14:30:39.398Z,53.39
2018-06-16T14:33:07.634Z,53.20
2018-06-16T14:35:35.794Z,52.98
2018-06-16T14:38:04.002Z,51.65
2018-06-16T14:40:32.304Z,52.80
2018-06-16T14:43:00.486Z,52.53
2018-06-16T14:45:28.656Z,52.59
2018-06-16T14:47:56.834Z,49.42
2018-06-16T14:50:25.015Z,50.59
2018-06-16T14:52:53.198Z,50.05
2018-06-16T14:55:21.354Z,48.86
2018-06-16T14:57:49.537Z,50.72
2018-06-16T15:00:17.758Z,48.48
2018-06-16T15:02:45.945Z,51.13
2018-06-16T15:05:14.130Z,48.05
2018-06-16T15:07:42.299Z,48.37
2018-06-16T15:10:10.462Z,51.21
2018-06-16T15:12:38.710Z,46.88
2018-06-16T15:15:06.874Z,46.94
2018-06-16T15:17:35.055Z,48.34
2018-06-16T15:20:03.250Z,47.82
2018-06-16T15:22:31.418Z,47.64
2018-06-16T15:24:59.600Z,46.35
2018-06-16T15:27:27.818Z,47.37
2018-06-16T15:29:55.971Z,47.12
2018-06-16T15:32:24.146Z,49.34
2018-06-16T15:34:52.310Z,46.84
2018-06-16T15:37:20.484Z,47.11
2018-06-16T15:39:48.655Z,45.31
2018-06-16T15:42:16.863Z,46.74
2018-06-16T15:44:45.036Z,44.73
2018-06-16T15:47:13.210Z,45.41
2018-06-16T15:49:41.370Z,51.93
2018-06-16T15:52:09.518Z,51.36
2018-06-16T15:54:37.674Z,48.47
2018-06-16T15:57:05.834Z,48.83
2018-06-16T15:59:33.982Z,55.72
2018-06-16T16:02:02.162Z,52.25
2018-06-16T16:04:30.396Z,56.10
2018-06-16T16:06:58.687Z,55.13
2018-06-16T16:09:26.854Z,56.68
2018-06-16T16:11:55.015Z,58.55
2018-06-16T16:14:23.432Z,58.15
2018-06-16T16:16:51.602Z,53.87
2018-06-16T16:19:19.774Z,54.91
2018-06-16T16:21:48.125Z,58.48
2018-06-16T16:24:16.350Z,65.67
2018-06-16T16:26:44.554Z,71.28
2018-06-16T16:29:12.752Z,74.94
2018-06-16T16:31:41.210Z,78.40
2018-06-16T16:34:09.369Z,81.75
2018-06-16T16:36:37.542Z,83.72
2018-06-16T16:39:08.110Z,84.89
2018-06-16T16:41:36.486Z,85.87
2018-06-16T16:44:04.695Z,85.82
2018-06-16T16:46:33.043Z,89.18
2018-06-16T16:49:01.220Z,90.49
2018-06-16T16:51:29.406Z,89.53
2018-06-16T16:53:57.600Z,90.85
2018-06-16T16:56:25.812Z,94.75
2018-06-16T16:58:54.301Z,91.89
2018-06-16T17:01:22.464Z,93.13
2018-06-16T17:03:50.633Z,92.33
2018-06-16T17:06:19.034Z,91.91
2018-06-16T17:08:47.249Z,91.43
2018-06-16T17:11:15.602Z,92.43
2018-06-16T17:13:43.793Z,91.37
2018-06-16T17:16:12.063Z,92.62
2018-06-16T17:18:40.254Z,92.49
2018-06-16T17:21:08.451Z,92.66
2018-06-16T17:23:36.799Z,93.00
2018-06-16T17:26:05.014Z,92.44
2018-06-16T17:28:33.165Z,92.43
2018-06-16T17:31:01.323Z,92.33
2018-06-16T17:33:29.487Z,92.88
2018-06-16T17:35:57.666Z,93.86
2018-06-16T17:38:25.847Z,92.89
2018-06-16T17:40:54.019Z,92.77
2018-06-16T17:43:23.147Z,94.65
2018-06-16T17:45:51.279Z,93.36
2018-06-16T17:48:19.473Z,93.38
2018-06-16T17:50:47.666Z,92.84
2018-06-16T17:53:15.833Z,93.10
2018-06-16T17:55:43.983Z,93.21
2018-06-16T17:58:12.323Z,93.26
2018-06-16T18:00:40.483Z,92.56
2018-06-16T18:03:08.678Z,91.81
2018-06-16T18:05:36.875Z,91.84
2018-06-16T18:08:05.043Z,93.04
2018-06-16T18:10:33.240Z,92.68
2018-06-16T18:13:01.615Z,91.26
2018-06-16T18:15:29.782Z,91.20
2018-06-16T18:17:58.000Z,93.13
2018-06-16T18:20:26.151Z,94.10
2018-06-16T18:22:54.334Z,94.09
2018-06-16T18:25:22.551Z,94.57
2018-06-16T18:27:50.655Z,95.70
2018-06-16T18:30:18.869Z,96.65
2018-06-16T18:32:47.102Z,98.15
2018-06-16T18:35:15.386Z,99.24
2018-06-16T18:37:43.642Z,100.00
2018-06-16T18:40:11.805Z,100.00
2018-06-16T18:42:39.977Z,100.00
2018-06-16T18:45:08.257Z,100.00
2018-06-16T18:47:36.610Z,100.00
2018-06-16T18:50:05.058Z,100.00
2018-06-16T18:52:33.402Z,100.00
2018-06-16T18:55:01.574Z,100.00
2018-06-16T18:57:29.746Z,100.00
2018-06-16T18:59:57.918Z,100.00
2018-06-16T19:02:26.094Z,100.00
2018-06-16T19:04:54.346Z,100.00
2018-06-16T19:07:22.547Z,100.00
2018-06-16T19:09:51.003Z,100.00
2018-06-16T19:12:19.686Z,100.00
2018-06-16T19:14:47.994Z,100.00
2018-06-16T19:17:16.235Z,100.00
2018-06-16T19:19:44.542Z,100.00
2018-06-16T19:22:12.711Z,100.00
2018-06-16T19:24:41.331Z,100.00
2018-06-16T19:27:09.539Z,100.00
2018-06-16T19:29:37.794Z,100.00
2018-06-16T19:32:06.007Z,100.00
2018-06-16T19:34:34.182Z,100.00
2018-06-16T19:37:02.506Z,100.00
2018-06-16T19:39:30.706Z,100.00
2018-06-16T19:41:58.906Z,100.00
2018-06-16T19:44:27.086Z,100.00
2018-06-16T19:46:56.218Z,100.00
2018-06-16T19:49:24.447Z,100.00
2018-06-16T19:51:52.655Z,100.00
2018-06-16T19:54:21.034Z,100.00
2018-06-16T19:56:49.384Z,100.00
2018-06-16T19:59:17.549Z,100.00
2018-06-16T20:01:45.711Z,100.00
2018-06-16T20:04:13.900Z,100.00
2018-06-16T20:06:42.089Z,100.00
2018-06-16T20:09:10.227Z,100.00
2018-06-16T20:11:38.394Z,100.00
2018-06-16T20:14:06.574Z,100.00
2018-06-16T20:16:34.742Z,100.00
2018-06-16T20:19:02.919Z,100.00
2018-06-16T20:21:31.094Z,100.00
2018-06-16T20:23:59.286Z,100.00
2018-06-16T20:26:27.454Z,100.00
2018-06-16T20:28:55.618Z,100.00
2018-06-16T20:31:23.782Z,100.00
2018-06-16T20:33:52.139Z,100.00
2018-06-16T20:36:20.306Z,100.00
2018-06-16T20:38:48.478Z,100.00
2018-06-16T20:41:16.651Z,100.00
2018-06-16T20:43:44.812Z,100.00
2018-06-16T20:46:12.990Z,100.00
2018-06-16T20:48:41.148Z,100.00
2018-06-16T20:51:09.310Z,100.00
2018-06-16T20:53:37.509Z,100.00
2018-06-16T20:56:05.935Z,100.00
2018-06-16T20:58:34.103Z,100.00
2018-06-16T21:01:02.262Z,100.00
2018-06-16T21:03:30.422Z,100.00
2018-06-16T21:05:58.594Z,100.00
2018-06-16T21:08:26.762Z,100.00
2018-06-16T21:10:54.918Z,100.00
2018-06-16T21:13:23.091Z,100.00
2018-06-16T21:15:51.246Z,100.00
2018-06-16T21:18:19.418Z,100.00
2018-06-16T21:20:47.575Z,100.00
2018-06-16T21:23:15.740Z,100.00
2018-06-16T21:25:43.937Z,100.00
2018-06-16T21:28:12.106Z,100.00
2018-06-16T21:30:41.262Z,100.00
2018-06-16T21:33:09.450Z,100.00
2018-06-16T21:35:37.726Z,100.00
2018-06-16T21:38:05.914Z,100.00
2018-06-16T21:40:34.077Z,100.00
2018-06-16T21:43:02.240Z,100.00
2018-06-16T21:45:30.394Z,100.00
2018-06-16T21:47:58.558Z,100.00
2018-06-16T21:50:26.731Z,100.00
2018-06-16T21:52:54.901Z,100.00
2018-06-16T21:55:23.071Z,100.00
2018-06-16T21:57:51.236Z,100.00
2018-06-16T22:00:19.410Z,100.00
2018-06-16T22:02:47.568Z,100.00
2018-06-16T22:05:15.759Z,100.00
2018-06-16T22:07:43.926Z,100.00
2018-06-16T22:10:12.154Z,100.00
2018-06-16T22:12:40.321Z,100.00
2018-06-16T22:15:08.506Z,100.00
2018-06-16T22:17:36.674Z,100.00
2018-06-16T22:20:05.221Z,100.00
2018-06-16T22:22:33.586Z,100.00
2018-06-16T22:25:01.766Z,100.00
2018-06-16T22:27:29.938Z,100.00
2018-06-16T22:29:58.106Z,100.00
2018-06-16T22:32:26.282Z,100.00
2018-06-16T22:34:54.454Z,100.00
2018-06-16T22:37:22.618Z,100.00
2018-06-16T22:39:50.802Z,100.00
2018-06-16T22:42:18.972Z,100.00
2018-06-16T22:44:47.148Z,100.00
2018-06-16T22:47:15.374Z,100.00
2018-06-16T22:49:43.554Z,100.00
2018-06-16T22:52:11.743Z,100.00
2018-06-16T22:54:39.912Z,100.00
2018-06-16T22:57:08.088Z,100.00
2018-06-16T22:59:36.282Z,100.00
2018-06-16T23:02:04.483Z,100.00
2018-06-16T23:04:32.663Z,100.00
2018-06-16T23:07:00.826Z,100.00
2018-06-16T23:09:29.014Z,100.00
2018-06-16T23:11:57.181Z,100.00
2018-06-16T23:14:25.343Z,100.00
2018-06-16T23:16:53.512Z,100.00
2018-06-16T23:19:21.730Z,100.00
2018-06-16T23:21:49.887Z,100.00
2018-06-16T23:24:18.062Z,100.00
2018-06-16T23:26:46.223Z,100.00
2018-06-16T23:29:14.395Z,100.00
2018-06-16T23:31:42.631Z,100.00
2018-06-16T23:34:10.806Z,100.00
2018-06-16T23:36:38.966Z,100.00
2018-06-16T23:39:09.447Z,100.00
2018-06-16T23:41:37.618Z,100.00
2018-06-16T23:44:06.042Z,100.00
2018-06-16T23:46:34.341Z,100.00
2018-06-16T23:49:02.514Z,100.00
2018-06-16T23:51:30.693Z,100.00
2018-06-16T23:53:58.850Z,100.00
2018-06-16T23:56:27.147Z,100.00
2018-06-16T23:58:55.307Z,100.00
